sensor_id;sensor_type;location;lat;lon;timestamp;P1;durP1;ratioP1;P2;durP2;ratioP2
42600;SDS011;28229;48.856;9.088;2022-12-11T00:00:36;22.73;;;14.80;;
42600;SDS011;28229;48.856;9.088;2022-12-11T00:03:05;23.37;;;14.97;;
42600;SDS011;28229;48.856;9.088;2022-12-11T00:05:31;24.97;;;15.97;;
42600;SDS011;28229;48.856;9.088;2022-12-11T00:07:57;22.87;;;14.83;;
42600;SDS011;28229;48.856;9.088;2022-12-11T00:10:23;27.63;;;16.73;;
42600;SDS011;28229;48.856;9.088;2022-12-11T00:12:51;26.53;;;16.20;;
42600;SDS011;28229;48.856;9.088;2022-12-11T00:15:17;28.27;;;16.77;;
42600;SDS011;28229;48.856;9.088;2022-12-11T00:17:43;27.53;;;17.93;;
42600;SDS011;28229;48.856;9.088;2022-12-11T00:20:09;27.97;;;17.50;;
42600;SDS011;28229;48.856;9.088;2022-12-11T00:22:35;26.47;;;16.67;;
42600;SDS011;28229;48.856;9.088;2022-12-11T00:25:00;27.63;;;18.23;;
42600;SDS011;28229;48.856;9.088;2022-12-11T00:27:26;27.73;;;17.30;;
42600;SDS011;28229;48.856;9.088;2022-12-11T00:29:52;28.23;;;17.50;;
42600;SDS011;28229;48.856;9.088;2022-12-11T00:32:18;27.97;;;16.90;;
42600;SDS011;28229;48.856;9.088;2022-12-11T00:34:44;26.03;;;17.37;;
42600;SDS011;28229;48.856;9.088;2022-12-11T00:37:09;28.73;;;17.63;;
42600;SDS011;28229;48.856;9.088;2022-12-11T00:39:36;26.33;;;15.77;;
42600;SDS011;28229;48.856;9.088;2022-12-11T00:42:02;28.87;;;18.20;;
42600;SDS011;28229;48.856;9.088;2022-12-11T00:44:27;31.70;;;17.90;;
42600;SDS011;28229;48.856;9.088;2022-12-11T00:46:53;29.47;;;17.67;;
42600;SDS011;28229;48.856;9.088;2022-12-11T00:49:19;25.43;;;17.03;;
42600;SDS011;28229;48.856;9.088;2022-12-11T00:51:45;30.37;;;18.67;;
42600;SDS011;28229;48.856;9.088;2022-12-11T00:54:10;30.33;;;18.43;;
42600;SDS011;28229;48.856;9.088;2022-12-11T00:56:36;29.57;;;18.30;;
42600;SDS011;28229;48.856;9.088;2022-12-11T00:59:02;29.13;;;17.80;;
42600;SDS011;28229;48.856;9.088;2022-12-11T01:01:28;29.87;;;17.60;;
42600;SDS011;28229;48.856;9.088;2022-12-11T01:04:08;29.33;;;17.73;;
42600;SDS011;28229;48.856;9.088;2022-12-11T01:06:34;29.07;;;18.43;;
42600;SDS011;28229;48.856;9.088;2022-12-11T01:09:00;31.10;;;18.87;;
42600;SDS011;28229;48.856;9.088;2022-12-11T01:11:44;30.33;;;18.17;;
42600;SDS011;28229;48.856;9.088;2022-12-11T01:14:10;30.20;;;18.47;;
42600;SDS011;28229;48.856;9.088;2022-12-11T01:16:36;32.57;;;19.27;;
42600;SDS011;28229;48.856;9.088;2022-12-11T01:19:02;32.43;;;18.87;;
42600;SDS011;28229;48.856;9.088;2022-12-11T01:21:28;31.30;;;19.10;;
42600;SDS011;28229;48.856;9.088;2022-12-11T01:23:54;29.13;;;18.33;;
42600;SDS011;28229;48.856;9.088;2022-12-11T01:26:20;30.83;;;18.90;;
42600;SDS011;28229;48.856;9.088;2022-12-11T01:28:48;30.33;;;18.43;;
42600;SDS011;28229;48.856;9.088;2022-12-11T01:31:15;28.33;;;18.50;;
42600;SDS011;28229;48.856;9.088;2022-12-11T01:33:43;27.97;;;18.10;;
42600;SDS011;28229;48.856;9.088;2022-12-11T01:36:11;29.33;;;18.70;;
42600;SDS011;28229;48.856;9.088;2022-12-11T01:38:43;33.17;;;19.43;;
42600;SDS011;28229;48.856;9.088;2022-12-11T01:41:10;29.63;;;17.93;;
42600;SDS011;28229;48.856;9.088;2022-12-11T01:43:58;27.43;;;17.40;;
42600;SDS011;28229;48.856;9.088;2022-12-11T01:46:30;25.30;;;16.10;;
42600;SDS011;28229;48.856;9.088;2022-12-11T01:48:57;25.77;;;15.37;;
42600;SDS011;28229;48.856;9.088;2022-12-11T01:51:25;24.47;;;15.70;;
42600;SDS011;28229;48.856;9.088;2022-12-11T01:53:58;24.70;;;15.50;;
42600;SDS011;28229;48.856;9.088;2022-12-11T01:56:30;23.90;;;15.13;;
42600;SDS011;28229;48.856;9.088;2022-12-11T01:58:58;25.50;;;15.57;;
42600;SDS011;28229;48.856;9.088;2022-12-11T02:04:33;24.87;;;15.50;;
42600;SDS011;28229;48.856;9.088;2022-12-11T02:07:02;23.77;;;15.30;;
42600;SDS011;28229;48.856;9.088;2022-12-11T02:09:30;22.20;;;14.67;;
42600;SDS011;28229;48.856;9.088;2022-12-11T02:12:02;26.23;;;16.07;;
42600;SDS011;28229;48.856;9.088;2022-12-11T02:14:39;23.83;;;14.73;;
42600;SDS011;28229;48.856;9.088;2022-12-11T02:27:46;24.20;;;14.67;;
42600;SDS011;28229;48.856;9.088;2022-12-11T02:30:21;21.23;;;14.50;;
42600;SDS011;28229;48.856;9.088;2022-12-11T02:35:30;23.57;;;14.80;;
42600;SDS011;28229;48.856;9.088;2022-12-11T02:38:04;23.13;;;14.47;;
42600;SDS011;28229;48.856;9.088;2022-12-11T02:40:36;21.90;;;14.77;;
42600;SDS011;28229;48.856;9.088;2022-12-11T02:43:05;24.77;;;15.67;;
42600;SDS011;28229;48.856;9.088;2022-12-11T02:45:34;21.73;;;14.80;;
42600;SDS011;28229;48.856;9.088;2022-12-11T02:48:03;24.13;;;14.50;;
42600;SDS011;28229;48.856;9.088;2022-12-11T02:50:32;25.47;;;17.13;;
42600;SDS011;28229;48.856;9.088;2022-12-11T02:53:02;28.67;;;18.13;;
42600;SDS011;28229;48.856;9.088;2022-12-11T02:55:31;24.30;;;15.73;;
42600;SDS011;28229;48.856;9.088;2022-12-11T02:58:20;24.63;;;16.17;;
42600;SDS011;28229;48.856;9.088;2022-12-11T03:00:51;24.50;;;15.30;;
42600;SDS011;28229;48.856;9.088;2022-12-11T03:03:17;24.13;;;15.00;;
42600;SDS011;28229;48.856;9.088;2022-12-11T03:05:43;27.13;;;16.20;;
42600;SDS011;28229;48.856;9.088;2022-12-11T03:08:10;24.33;;;15.83;;
42600;SDS011;28229;48.856;9.088;2022-12-11T03:10:37;27.87;;;16.83;;
42600;SDS011;28229;48.856;9.088;2022-12-11T03:13:03;27.60;;;17.83;;
42600;SDS011;28229;48.856;9.088;2022-12-11T03:15:32;28.47;;;17.37;;
42600;SDS011;28229;48.856;9.088;2022-12-11T03:18:25;28.77;;;17.63;;
42600;SDS011;28229;48.856;9.088;2022-12-11T03:23:56;25.00;;;15.30;;
42600;SDS011;28229;48.856;9.088;2022-12-11T03:26:29;23.70;;;15.70;;
42600;SDS011;28229;48.856;9.088;2022-12-11T03:29:03;23.37;;;15.40;;
42600;SDS011;28229;48.856;9.088;2022-12-11T03:31:37;24.07;;;15.43;;
42600;SDS011;28229;48.856;9.088;2022-12-11T03:34:09;24.67;;;15.20;;
42600;SDS011;28229;48.856;9.088;2022-12-11T03:36:59;24.90;;;15.47;;
42600;SDS011;28229;48.856;9.088;2022-12-11T03:39:32;24.90;;;15.13;;
42600;SDS011;28229;48.856;9.088;2022-12-11T03:42:04;24.17;;;15.13;;
42600;SDS011;28229;48.856;9.088;2022-12-11T03:44:32;24.53;;;15.37;;
42600;SDS011;28229;48.856;9.088;2022-12-11T03:47:00;27.93;;;15.83;;
42600;SDS011;28229;48.856;9.088;2022-12-11T03:49:32;21.73;;;14.73;;
42600;SDS011;28229;48.856;9.088;2022-12-11T03:52:01;22.83;;;14.57;;
42600;SDS011;28229;48.856;9.088;2022-12-11T03:54:28;25.83;;;15.77;;
42600;SDS011;28229;48.856;9.088;2022-12-11T03:56:57;22.23;;;13.47;;
42600;SDS011;28229;48.856;9.088;2022-12-11T03:59:26;21.80;;;13.57;;
42600;SDS011;28229;48.856;9.088;2022-12-11T04:01:52;20.50;;;13.33;;
42600;SDS011;28229;48.856;9.088;2022-12-11T04:04:18;20.53;;;13.23;;
42600;SDS011;28229;48.856;9.088;2022-12-11T04:07:02;19.57;;;12.73;;
42600;SDS011;28229;48.856;9.088;2022-12-11T04:09:28;19.83;;;12.60;;
42600;SDS011;28229;48.856;9.088;2022-12-11T04:11:54;20.27;;;12.43;;
42600;SDS011;28229;48.856;9.088;2022-12-11T04:14:19;20.47;;;13.47;;
42600;SDS011;28229;48.856;9.088;2022-12-11T04:17:04;19.83;;;13.23;;
42600;SDS011;28229;48.856;9.088;2022-12-11T04:19:30;23.60;;;13.37;;
42600;SDS011;28229;48.856;9.088;2022-12-11T04:22:29;21.47;;;13.33;;
42600;SDS011;28229;48.856;9.088;2022-12-11T04:25:14;22.03;;;13.80;;
42600;SDS011;28229;48.856;9.088;2022-12-11T04:27:39;19.33;;;12.90;;
42600;SDS011;28229;48.856;9.088;2022-12-11T04:30:16;19.13;;;13.00;;
42600;SDS011;28229;48.856;9.088;2022-12-11T04:32:44;20.50;;;12.93;;
42600;SDS011;28229;48.856;9.088;2022-12-11T04:35:10;19.73;;;13.33;;
42600;SDS011;28229;48.856;9.088;2022-12-11T04:37:37;20.10;;;12.40;;
42600;SDS011;28229;48.856;9.088;2022-12-11T04:40:06;21.03;;;13.33;;
42600;SDS011;28229;48.856;9.088;2022-12-11T04:42:34;21.00;;;13.10;;
42600;SDS011;28229;48.856;9.088;2022-12-11T04:45:00;20.17;;;12.57;;
42600;SDS011;28229;48.856;9.088;2022-12-11T04:47:26;19.67;;;12.13;;
42600;SDS011;28229;48.856;9.088;2022-12-11T04:49:52;19.93;;;12.67;;
42600;SDS011;28229;48.856;9.088;2022-12-11T04:52:17;21.07;;;13.10;;
42600;SDS011;28229;48.856;9.088;2022-12-11T04:54:44;20.17;;;13.30;;
42600;SDS011;28229;48.856;9.088;2022-12-11T04:57:09;21.43;;;13.03;;
42600;SDS011;28229;48.856;9.088;2022-12-11T04:59:35;18.77;;;11.87;;
42600;SDS011;28229;48.856;9.088;2022-12-11T05:02:02;21.07;;;13.10;;
42600;SDS011;28229;48.856;9.088;2022-12-11T05:04:31;18.33;;;12.40;;
42600;SDS011;28229;48.856;9.088;2022-12-11T05:06:59;22.90;;;13.80;;
42600;SDS011;28229;48.856;9.088;2022-12-11T05:09:25;21.20;;;13.07;;
42600;SDS011;28229;48.856;9.088;2022-12-11T05:11:52;20.47;;;12.93;;
42600;SDS011;28229;48.856;9.088;2022-12-11T05:14:18;25.33;;;15.63;;
42600;SDS011;28229;48.856;9.088;2022-12-11T05:16:44;21.30;;;13.90;;
42600;SDS011;28229;48.856;9.088;2022-12-11T05:19:10;19.63;;;12.43;;
42600;SDS011;28229;48.856;9.088;2022-12-11T05:21:36;20.63;;;11.93;;
42600;SDS011;28229;48.856;9.088;2022-12-11T05:24:02;19.13;;;11.93;;
42600;SDS011;28229;48.856;9.088;2022-12-11T05:26:28;18.67;;;12.13;;
42600;SDS011;28229;48.856;9.088;2022-12-11T05:28:54;16.87;;;11.50;;
42600;SDS011;28229;48.856;9.088;2022-12-11T05:31:24;17.33;;;11.83;;
42600;SDS011;28229;48.856;9.088;2022-12-11T05:33:51;18.87;;;12.23;;
42600;SDS011;28229;48.856;9.088;2022-12-11T05:36:19;20.03;;;12.60;;
42600;SDS011;28229;48.856;9.088;2022-12-11T05:38:46;21.87;;;12.90;;
42600;SDS011;28229;48.856;9.088;2022-12-11T05:41:13;17.40;;;11.70;;
42600;SDS011;28229;48.856;9.088;2022-12-11T05:43:41;21.00;;;12.97;;
42600;SDS011;28229;48.856;9.088;2022-12-11T05:46:08;17.83;;;12.67;;
42600;SDS011;28229;48.856;9.088;2022-12-11T05:48:42;19.80;;;12.37;;
42600;SDS011;28229;48.856;9.088;2022-12-11T05:51:10;19.87;;;12.73;;
42600;SDS011;28229;48.856;9.088;2022-12-11T05:53:38;19.90;;;12.53;;
42600;SDS011;28229;48.856;9.088;2022-12-11T05:56:09;21.97;;;14.27;;
42600;SDS011;28229;48.856;9.088;2022-12-11T05:58:47;21.87;;;13.73;;
42600;SDS011;28229;48.856;9.088;2022-12-11T06:01:15;24.40;;;14.83;;
42600;SDS011;28229;48.856;9.088;2022-12-11T06:03:42;28.73;;;15.90;;
42600;SDS011;28229;48.856;9.088;2022-12-11T06:06:09;27.30;;;16.80;;
42600;SDS011;28229;48.856;9.088;2022-12-11T06:08:35;25.10;;;15.40;;
42600;SDS011;28229;48.856;9.088;2022-12-11T06:11:01;27.87;;;16.53;;
42600;SDS011;28229;48.856;9.088;2022-12-11T06:13:29;25.67;;;15.70;;
42600;SDS011;28229;48.856;9.088;2022-12-11T06:15:58;24.93;;;15.73;;
42600;SDS011;28229;48.856;9.088;2022-12-11T06:18:27;26.47;;;16.20;;
42600;SDS011;28229;48.856;9.088;2022-12-11T06:20:53;24.50;;;15.53;;
42600;SDS011;28229;48.856;9.088;2022-12-11T06:23:19;27.83;;;16.23;;
42600;SDS011;28229;48.856;9.088;2022-12-11T06:25:44;25.70;;;16.20;;
42600;SDS011;28229;48.856;9.088;2022-12-11T06:28:10;23.97;;;14.73;;
42600;SDS011;28229;48.856;9.088;2022-12-11T06:30:36;27.57;;;16.17;;
42600;SDS011;28229;48.856;9.088;2022-12-11T06:33:02;31.93;;;17.77;;
42600;SDS011;28229;48.856;9.088;2022-12-11T06:35:27;29.67;;;18.03;;
42600;SDS011;28229;48.856;9.088;2022-12-11T06:37:53;29.10;;;17.27;;
42600;SDS011;28229;48.856;9.088;2022-12-11T06:40:19;26.97;;;17.30;;
42600;SDS011;28229;48.856;9.088;2022-12-11T06:42:45;30.83;;;17.73;;
42600;SDS011;28229;48.856;9.088;2022-12-11T06:45:11;29.57;;;17.37;;
42600;SDS011;28229;48.856;9.088;2022-12-11T06:47:38;28.63;;;17.43;;
42600;SDS011;28229;48.856;9.088;2022-12-11T06:50:04;27.43;;;17.23;;
42600;SDS011;28229;48.856;9.088;2022-12-11T06:52:30;29.77;;;16.63;;
42600;SDS011;28229;48.856;9.088;2022-12-11T06:54:55;25.90;;;15.93;;
42600;SDS011;28229;48.856;9.088;2022-12-11T06:57:22;18.67;;;11.17;;
42600;SDS011;28229;48.856;9.088;2022-12-11T06:59:48;24.17;;;13.83;;
42600;SDS011;28229;48.856;9.088;2022-12-11T07:02:14;33.20;;;18.57;;
42600;SDS011;28229;48.856;9.088;2022-12-11T07:04:42;31.60;;;18.30;;
42600;SDS011;28229;48.856;9.088;2022-12-11T07:07:08;33.67;;;18.90;;
42600;SDS011;28229;48.856;9.088;2022-12-11T07:09:35;30.73;;;18.50;;
42600;SDS011;28229;48.856;9.088;2022-12-11T07:12:03;30.43;;;18.13;;
42600;SDS011;28229;48.856;9.088;2022-12-11T07:14:29;29.43;;;18.07;;
42600;SDS011;28229;48.856;9.088;2022-12-11T07:16:55;42.03;;;25.70;;
42600;SDS011;28229;48.856;9.088;2022-12-11T07:19:22;42.77;;;25.87;;
42600;SDS011;28229;48.856;9.088;2022-12-11T07:21:49;37.10;;;23.73;;
42600;SDS011;28229;48.856;9.088;2022-12-11T07:24:15;45.27;;;26.93;;
42600;SDS011;28229;48.856;9.088;2022-12-11T07:26:41;38.60;;;23.07;;
42600;SDS011;28229;48.856;9.088;2022-12-11T07:29:06;38.40;;;22.70;;
42600;SDS011;28229;48.856;9.088;2022-12-11T07:31:33;34.47;;;20.53;;
42600;SDS011;28229;48.856;9.088;2022-12-11T07:34:00;29.53;;;18.47;;
42600;SDS011;28229;48.856;9.088;2022-12-11T07:36:29;28.43;;;17.53;;
42600;SDS011;28229;48.856;9.088;2022-12-11T07:38:55;30.30;;;18.13;;
42600;SDS011;28229;48.856;9.088;2022-12-11T07:41:21;31.20;;;18.27;;
42600;SDS011;28229;48.856;9.088;2022-12-11T07:43:52;28.93;;;16.77;;
42600;SDS011;28229;48.856;9.088;2022-12-11T07:46:20;27.40;;;17.37;;
42600;SDS011;28229;48.856;9.088;2022-12-11T07:48:48;31.90;;;18.00;;
42600;SDS011;28229;48.856;9.088;2022-12-11T07:51:32;31.63;;;18.60;;
42600;SDS011;28229;48.856;9.088;2022-12-11T07:54:01;31.80;;;19.17;;
42600;SDS011;28229;48.856;9.088;2022-12-11T07:56:29;32.53;;;20.13;;
42600;SDS011;28229;48.856;9.088;2022-12-11T07:59:03;34.33;;;19.77;;
42600;SDS011;28229;48.856;9.088;2022-12-11T08:01:30;32.17;;;18.67;;
42600;SDS011;28229;48.856;9.088;2022-12-11T08:03:59;32.70;;;20.53;;
42600;SDS011;28229;48.856;9.088;2022-12-11T08:06:27;34.50;;;20.17;;
42600;SDS011;28229;48.856;9.088;2022-12-11T08:08:54;34.10;;;21.50;;
42600;SDS011;28229;48.856;9.088;2022-12-11T08:11:21;35.33;;;22.07;;
42600;SDS011;28229;48.856;9.088;2022-12-11T08:13:48;40.20;;;22.77;;
42600;SDS011;28229;48.856;9.088;2022-12-11T08:16:14;40.53;;;25.03;;
42600;SDS011;28229;48.856;9.088;2022-12-11T08:18:41;40.23;;;23.93;;
42600;SDS011;28229;48.856;9.088;2022-12-11T08:21:12;39.67;;;22.40;;
42600;SDS011;28229;48.856;9.088;2022-12-11T08:23:40;32.13;;;19.17;;
42600;SDS011;28229;48.856;9.088;2022-12-11T08:26:07;32.77;;;19.20;;
42600;SDS011;28229;48.856;9.088;2022-12-11T08:28:35;33.00;;;20.30;;
42600;SDS011;28229;48.856;9.088;2022-12-11T08:31:05;35.37;;;20.83;;
42600;SDS011;28229;48.856;9.088;2022-12-11T08:33:33;33.77;;;20.13;;
42600;SDS011;28229;48.856;9.088;2022-12-11T08:36:03;36.87;;;22.27;;
42600;SDS011;28229;48.856;9.088;2022-12-11T08:38:31;33.33;;;20.50;;
42600;SDS011;28229;48.856;9.088;2022-12-11T08:40:58;33.90;;;21.20;;
42600;SDS011;28229;48.856;9.088;2022-12-11T08:43:24;33.57;;;20.53;;
42600;SDS011;28229;48.856;9.088;2022-12-11T08:45:50;29.70;;;19.10;;
42600;SDS011;28229;48.856;9.088;2022-12-11T08:48:15;30.10;;;18.23;;
42600;SDS011;28229;48.856;9.088;2022-12-11T08:50:41;27.67;;;18.10;;
42600;SDS011;28229;48.856;9.088;2022-12-11T08:53:07;34.63;;;20.53;;
42600;SDS011;28229;48.856;9.088;2022-12-11T08:55:33;28.70;;;18.63;;
42600;SDS011;28229;48.856;9.088;2022-12-11T08:57:59;30.20;;;18.73;;
42600;SDS011;28229;48.856;9.088;2022-12-11T09:00:26;28.10;;;17.33;;
42600;SDS011;28229;48.856;9.088;2022-12-11T09:02:52;25.67;;;16.50;;
42600;SDS011;28229;48.856;9.088;2022-12-11T09:05:18;26.50;;;16.50;;
42600;SDS011;28229;48.856;9.088;2022-12-11T09:07:44;28.03;;;16.90;;
42600;SDS011;28229;48.856;9.088;2022-12-11T09:10:09;25.97;;;16.40;;
42600;SDS011;28229;48.856;9.088;2022-12-11T09:12:35;26.40;;;15.80;;
42600;SDS011;28229;48.856;9.088;2022-12-11T09:15:03;27.23;;;16.33;;
42600;SDS011;28229;48.856;9.088;2022-12-11T09:17:29;24.87;;;14.77;;
42600;SDS011;28229;48.856;9.088;2022-12-11T09:19:55;25.33;;;15.30;;
42600;SDS011;28229;48.856;9.088;2022-12-11T09:22:21;24.63;;;14.80;;
42600;SDS011;28229;48.856;9.088;2022-12-11T09:24:46;22.97;;;14.70;;
42600;SDS011;28229;48.856;9.088;2022-12-11T09:27:12;20.83;;;13.60;;
42600;SDS011;28229;48.856;9.088;2022-12-11T09:29:38;22.27;;;13.73;;
42600;SDS011;28229;48.856;9.088;2022-12-11T09:32:04;20.20;;;13.63;;
42600;SDS011;28229;48.856;9.088;2022-12-11T09:34:30;23.63;;;14.30;;
42600;SDS011;28229;48.856;9.088;2022-12-11T09:36:55;22.90;;;14.07;;
42600;SDS011;28229;48.856;9.088;2022-12-11T09:39:21;20.10;;;13.97;;
42600;SDS011;28229;48.856;9.088;2022-12-11T09:44:42;24.67;;;15.00;;
42600;SDS011;28229;48.856;9.088;2022-12-11T09:47:25;27.83;;;17.23;;
42600;SDS011;28229;48.856;9.088;2022-12-11T09:49:55;21.17;;;13.53;;
42600;SDS011;28229;48.856;9.088;2022-12-11T09:52:32;20.73;;;13.80;;
42600;SDS011;28229;48.856;9.088;2022-12-11T09:55:24;21.33;;;13.27;;
42600;SDS011;28229;48.856;9.088;2022-12-11T09:58:15;18.73;;;12.43;;
42600;SDS011;28229;48.856;9.088;2022-12-11T10:09:25;18.90;;;12.80;;
42600;SDS011;28229;48.856;9.088;2022-12-11T10:12:16;20.50;;;13.97;;
42600;SDS011;28229;48.856;9.088;2022-12-11T10:17:19;21.27;;;13.63;;
42600;SDS011;28229;48.856;9.088;2022-12-11T10:19:49;19.60;;;12.93;;
42600;SDS011;28229;48.856;9.088;2022-12-11T10:22:17;20.87;;;12.70;;
42600;SDS011;28229;48.856;9.088;2022-12-11T10:24:57;18.13;;;12.17;;
42600;SDS011;28229;48.856;9.088;2022-12-11T10:27:29;18.60;;;12.03;;
42600;SDS011;28229;48.856;9.088;2022-12-11T10:30:18;18.10;;;12.00;;
42600;SDS011;28229;48.856;9.088;2022-12-11T10:32:50;19.67;;;12.47;;
42600;SDS011;28229;48.856;9.088;2022-12-11T10:35:38;18.73;;;11.27;;
42600;SDS011;28229;48.856;9.088;2022-12-11T10:38:11;17.87;;;11.30;;
42600;SDS011;28229;48.856;9.088;2022-12-11T10:41:18;16.40;;;11.33;;
42600;SDS011;28229;48.856;9.088;2022-12-11T10:43:40;20.60;;;12.67;;
42600;SDS011;28229;48.856;9.088;2022-12-11T10:48:48;18.67;;;12.30;;
42600;SDS011;28229;48.856;9.088;2022-12-11T10:51:14;19.00;;;12.27;;
42600;SDS011;28229;48.856;9.088;2022-12-11T10:53:40;17.30;;;11.87;;
42600;SDS011;28229;48.856;9.088;2022-12-11T10:56:08;18.87;;;12.50;;
42600;SDS011;28229;48.856;9.088;2022-12-11T10:58:36;19.77;;;13.20;;
42600;SDS011;28229;48.856;9.088;2022-12-11T11:01:15;20.83;;;13.03;;
42600;SDS011;28229;48.856;9.088;2022-12-11T11:06:20;21.90;;;14.03;;
42600;SDS011;28229;48.856;9.088;2022-12-11T11:08:48;21.80;;;13.77;;
42600;SDS011;28229;48.856;9.088;2022-12-11T11:13:51;20.60;;;13.90;;
42600;SDS011;28229;48.856;9.088;2022-12-11T11:16:29;20.53;;;13.47;;
42600;SDS011;28229;48.856;9.088;2022-12-11T11:18:57;20.17;;;13.33;;
42600;SDS011;28229;48.856;9.088;2022-12-11T11:21:25;21.70;;;14.00;;
42600;SDS011;28229;48.856;9.088;2022-12-11T11:23:52;21.30;;;13.53;;
42600;SDS011;28229;48.856;9.088;2022-12-11T11:26:19;26.63;;;16.77;;
42600;SDS011;28229;48.856;9.088;2022-12-11T11:31:17;22.57;;;14.90;;
42600;SDS011;28229;48.856;9.088;2022-12-11T11:33:51;19.67;;;13.40;;
42600;SDS011;28229;48.856;9.088;2022-12-11T11:36:24;20.63;;;13.50;;
42600;SDS011;28229;48.856;9.088;2022-12-11T11:38:58;20.30;;;13.23;;
42600;SDS011;28229;48.856;9.088;2022-12-11T11:41:42;19.23;;;12.40;;
42600;SDS011;28229;48.856;9.088;2022-12-11T11:44:15;18.67;;;11.67;;
42600;SDS011;28229;48.856;9.088;2022-12-11T11:46:59;18.43;;;11.70;;
42600;SDS011;28229;48.856;9.088;2022-12-11T11:49:39;19.57;;;12.13;;
42600;SDS011;28229;48.856;9.088;2022-12-11T11:57:37;21.77;;;14.00;;
42600;SDS011;28229;48.856;9.088;2022-12-11T12:00:19;21.77;;;14.07;;
42600;SDS011;28229;48.856;9.088;2022-12-11T12:02:48;16.70;;;12.10;;
42600;SDS011;28229;48.856;9.088;2022-12-11T12:08:26;17.43;;;11.37;;
42600;SDS011;28229;48.856;9.088;2022-12-11T12:14:02;16.53;;;11.23;;
42600;SDS011;28229;48.856;9.088;2022-12-11T12:17:05;16.57;;;11.50;;
42600;SDS011;28229;48.856;9.088;2022-12-11T12:22:29;17.10;;;11.80;;
42600;SDS011;28229;48.856;9.088;2022-12-11T12:28:21;17.50;;;11.80;;
42600;SDS011;28229;48.856;9.088;2022-12-11T12:33:46;18.10;;;12.63;;
42600;SDS011;28229;48.856;9.088;2022-12-11T12:36:39;19.93;;;12.97;;
42600;SDS011;28229;48.856;9.088;2022-12-11T12:41:55;23.47;;;13.50;;
42600;SDS011;28229;48.856;9.088;2022-12-11T12:44:33;18.27;;;12.07;;
42600;SDS011;28229;48.856;9.088;2022-12-11T12:47:10;15.60;;;11.33;;
42600;SDS011;28229;48.856;9.088;2022-12-11T12:49:40;19.50;;;12.63;;
42600;SDS011;28229;48.856;9.088;2022-12-11T12:52:12;18.53;;;12.23;;
42600;SDS011;28229;48.856;9.088;2022-12-11T12:54:50;17.63;;;12.10;;
42600;SDS011;28229;48.856;9.088;2022-12-11T12:57:38;17.00;;;12.30;;
42600;SDS011;28229;48.856;9.088;2022-12-11T13:00:09;19.13;;;12.40;;
42600;SDS011;28229;48.856;9.088;2022-12-11T13:02:37;16.73;;;11.77;;
42600;SDS011;28229;48.856;9.088;2022-12-11T13:05:31;19.30;;;13.10;;
42600;SDS011;28229;48.856;9.088;2022-12-11T13:08:00;20.80;;;14.07;;
42600;SDS011;28229;48.856;9.088;2022-12-11T13:10:32;19.90;;;13.23;;
42600;SDS011;28229;48.856;9.088;2022-12-11T13:13:01;18.23;;;13.20;;
42600;SDS011;28229;48.856;9.088;2022-12-11T13:15:39;19.60;;;13.40;;
42600;SDS011;28229;48.856;9.088;2022-12-11T13:21:01;18.63;;;12.60;;
42600;SDS011;28229;48.856;9.088;2022-12-11T13:23:47;21.70;;;13.63;;
42600;SDS011;28229;48.856;9.088;2022-12-11T13:26:25;20.07;;;13.83;;
42600;SDS011;28229;48.856;9.088;2022-12-11T13:28:56;22.27;;;14.87;;
42600;SDS011;28229;48.856;9.088;2022-12-11T13:31:33;20.23;;;13.93;;
42600;SDS011;28229;48.856;9.088;2022-12-11T13:34:12;22.50;;;14.53;;
42600;SDS011;28229;48.856;9.088;2022-12-11T13:36:51;20.23;;;13.53;;
42600;SDS011;28229;48.856;9.088;2022-12-11T13:39:25;19.77;;;12.60;;
42600;SDS011;28229;48.856;9.088;2022-12-11T13:41:54;19.93;;;13.37;;
42600;SDS011;28229;48.856;9.088;2022-12-11T13:44:28;19.67;;;13.77;;
42600;SDS011;28229;48.856;9.088;2022-12-11T13:46:58;22.07;;;14.13;;
42600;SDS011;28229;48.856;9.088;2022-12-11T13:49:27;22.13;;;14.83;;
42600;SDS011;28229;48.856;9.088;2022-12-11T13:51:59;21.77;;;14.03;;
42600;SDS011;28229;48.856;9.088;2022-12-11T13:54:26;20.90;;;12.83;;
42600;SDS011;28229;48.856;9.088;2022-12-11T13:56:55;21.47;;;13.83;;
42600;SDS011;28229;48.856;9.088;2022-12-11T13:59:34;20.73;;;13.97;;
42600;SDS011;28229;48.856;9.088;2022-12-11T14:02:10;19.50;;;13.60;;
42600;SDS011;28229;48.856;9.088;2022-12-11T14:04:42;19.83;;;13.37;;
42600;SDS011;28229;48.856;9.088;2022-12-11T14:07:09;21.60;;;13.77;;
42600;SDS011;28229;48.856;9.088;2022-12-11T14:09:41;18.83;;;13.00;;
42600;SDS011;28229;48.856;9.088;2022-12-11T14:12:17;21.63;;;13.70;;
42600;SDS011;28229;48.856;9.088;2022-12-11T14:14:49;21.27;;;13.03;;
42600;SDS011;28229;48.856;9.088;2022-12-11T14:17:22;21.23;;;13.63;;
42600;SDS011;28229;48.856;9.088;2022-12-11T14:19:50;20.77;;;13.80;;
42600;SDS011;28229;48.856;9.088;2022-12-11T14:22:19;22.07;;;14.37;;
42600;SDS011;28229;48.856;9.088;2022-12-11T14:24:51;21.37;;;14.47;;
42600;SDS011;28229;48.856;9.088;2022-12-11T14:27:22;19.47;;;13.07;;
42600;SDS011;28229;48.856;9.088;2022-12-11T14:29:49;21.10;;;13.63;;
42600;SDS011;28229;48.856;9.088;2022-12-11T14:32:34;19.10;;;12.17;;
42600;SDS011;28229;48.856;9.088;2022-12-11T14:35:09;19.83;;;12.90;;
42600;SDS011;28229;48.856;9.088;2022-12-11T14:37:45;20.70;;;13.70;;
42600;SDS011;28229;48.856;9.088;2022-12-11T14:40:16;20.20;;;13.43;;
42600;SDS011;28229;48.856;9.088;2022-12-11T14:42:54;21.33;;;13.00;;
42600;SDS011;28229;48.856;9.088;2022-12-11T14:48:00;21.73;;;13.97;;
42600;SDS011;28229;48.856;9.088;2022-12-11T14:50:50;21.10;;;13.73;;
42600;SDS011;28229;48.856;9.088;2022-12-11T14:53:39;25.33;;;14.97;;
42600;SDS011;28229;48.856;9.088;2022-12-11T14:56:12;23.70;;;14.17;;
42600;SDS011;28229;48.856;9.088;2022-12-11T14:58:42;22.87;;;14.23;;
42600;SDS011;28229;48.856;9.088;2022-12-11T15:01:26;22.00;;;14.00;;
42600;SDS011;28229;48.856;9.088;2022-12-11T15:06:43;20.37;;;14.10;;
42600;SDS011;28229;48.856;9.088;2022-12-11T15:09:16;24.37;;;15.27;;
42600;SDS011;28229;48.856;9.088;2022-12-11T15:11:51;22.87;;;14.80;;
42600;SDS011;28229;48.856;9.088;2022-12-11T15:14:19;26.00;;;15.70;;
42600;SDS011;28229;48.856;9.088;2022-12-11T15:16:48;27.23;;;16.40;;
42600;SDS011;28229;48.856;9.088;2022-12-11T15:19:22;26.43;;;16.27;;
42600;SDS011;28229;48.856;9.088;2022-12-11T15:21:52;26.70;;;17.13;;
42600;SDS011;28229;48.856;9.088;2022-12-11T15:24:29;29.17;;;17.90;;
42600;SDS011;28229;48.856;9.088;2022-12-11T15:27:04;30.23;;;17.30;;
42600;SDS011;28229;48.856;9.088;2022-12-11T15:29:32;28.93;;;16.90;;
42600;SDS011;28229;48.856;9.088;2022-12-11T15:34:49;29.67;;;17.60;;
42600;SDS011;28229;48.856;9.088;2022-12-11T15:37:27;28.77;;;17.20;;
42600;SDS011;28229;48.856;9.088;2022-12-11T15:40:04;29.00;;;16.60;;
42600;SDS011;28229;48.856;9.088;2022-12-11T15:42:31;29.70;;;17.73;;
42600;SDS011;28229;48.856;9.088;2022-12-11T15:45:00;28.33;;;17.87;;
42600;SDS011;28229;48.856;9.088;2022-12-11T15:47:27;34.10;;;19.90;;
42600;SDS011;28229;48.856;9.088;2022-12-11T15:50:06;31.93;;;18.33;;
42600;SDS011;28229;48.856;9.088;2022-12-11T15:52:53;30.27;;;18.50;;
42600;SDS011;28229;48.856;9.088;2022-12-11T15:55:21;34.20;;;19.67;;
42600;SDS011;28229;48.856;9.088;2022-12-11T15:57:49;35.97;;;20.57;;